Time;durP1;ratioP1;P1;durP2;ratioP2;P2;SDS_P1;SDS_P2;PMS_P1;PMS_P2;Temp;Humidity;BMP_temperature;BMP_pressure;BME280_temperature;BME280_humidity;BME280_pressure;Samples;Min_cycle;Max_cycle;Signal;HPM_P1;HPM_P2
2023/07/07 00:01:30;;;;;;;12.35;9.98;;;;;;;;;;5060057;28;20049;-74
2023/07/07 00:03:56;;;;;;;13.50;10.10;;;;;;;;;;5057641;28;20097;-74
2023/07/07 00:06:22;;;;;;;14.70;10.20;;;;;;;;;;5059405;28;20087;-74
2023/07/07 00:08:49;;;;;;;16.00;10.27;;;;;;;;;;5047437;28;20487;-74
2023/07/07 00:11:15;;;;;;;13.77;9.77;;;;;;;;;;5060016;28;20095;-74
2023/07/07 00:13:41;;;;;;;12.88;9.13;;;;;;;;;;5059388;28;20045;-74
2023/07/07 00:16:07;;;;;;;16.35;9.70;;;;;;;;;;5059091;28;20045;-74
2023/07/07 00:18:33;;;;;;;12.25;9.25;;;;;;;;;;5060760;28;20067;-74
2023/07/07 00:21:00;;;;;;;14.23;9.05;;;;;;;;;;5057919;28;20041;-73
2023/07/07 00:23:27;;;;;;;13.18;9.23;;;;;;;;;;5059453;28;20100;-75
2023/07/07 00:26:00;;;;;;;13.45;9.13;;;;;;;;;;5059370;28;20037;-75
2023/07/07 00:28:26;;;;;;;13.80;9.35;;;;;;;;;;5059938;28;20406;-74
2023/07/07 00:30:52;;;;;;;15.07;8.82;;;;;;;;;;5058845;28;20052;-72
2023/07/07 00:33:18;;;;;;;11.82;9.15;;;;;;;;;;5058388;28;20101;-73
2023/07/07 00:35:46;;;;;;;14.27;8.02;;;;;;;;;;5056827;28;20045;-73
2023/07/07 00:38:12;;;;;;;12.63;8.25;;;;;;;;;;5057784;28;20040;-73
2023/07/07 00:40:38;;;;;;;14.68;8.30;;;;;;;;;;5059399;28;20041;-74
2023/07/07 00:43:12;;;;;;;12.70;8.35;;;;;;;;;;5059442;28;20056;-73
2023/07/07 00:45:38;;;;;;;13.73;7.85;;;;;;;;;;5058157;28;20051;-74
2023/07/07 00:48:05;;;;;;;13.90;7.90;;;;;;;;;;5057137;28;20053;-74
2023/07/07 00:50:34;;;;;;;9.93;7.57;;;;;;;;;;5057108;28;20045;-74
2023/07/07 00:53:01;;;;;;;10.80;7.38;;;;;;;;;;5059126;28;20119;-74
2023/07/07 00:55:47;;;;;;;10.88;7.20;;;;;;;;;;5059070;28;20048;-74
2023/07/07 00:58:14;;;;;;;12.00;7.05;;;;;;;;;;5046818;28;20097;-74
2023/07/07 01:00:42;;;;;;;13.20;7.18;;;;;;;;;;5039167;28;20557;-74
2023/07/07 01:03:11;;;;;;;11.43;7.03;;;;;;;;;;5052280;28;20037;-74
2023/07/07 01:05:38;;;;;;;10.23;7.00;;;;;;;;;;5059259;28;20047;-73
2023/07/07 01:08:06;;;;;;;10.23;7.20;;;;;;;;;;5056912;28;20045;-74
2023/07/07 01:10:32;;;;;;;10.10;7.03;;;;;;;;;;5057008;28;20052;-74
2023/07/07 01:12:59;;;;;;;11.55;8.23;;;;;;;;;;5057819;28;20049;-75
2023/07/07 01:15:27;;;;;;;14.77;8.32;;;;;;;;;;5058821;28;20060;-74
2023/07/07 01:18:02;;;;;;;12.55;8.23;;;;;;;;;;5056445;28;21577;-74
2023/07/07 01:20:31;;;;;;;10.25;8.38;;;;;;;;;;5057503;28;20136;-73
2023/07/07 01:23:16;;;;;;;11.68;8.40;;;;;;;;;;5050836;28;20115;-74
2023/07/07 01:26:01;;;;;;;13.10;8.35;;;;;;;;;;5066544;28;20124;-74
2023/07/07 01:28:48;;;;;;;10.68;8.95;;;;;;;;;;5073985;28;20021;-74
2023/07/07 01:31:18;;;;;;;16.33;10.05;;;;;;;;;;5065981;28;20134;-73
2023/07/07 01:33:46;;;;;;;13.35;10.20;;;;;;;;;;5055028;28;20040;-74
2023/07/07 01:36:13;;;;;;;15.98;10.73;;;;;;;;;;5057341;28;20045;-74
2023/07/07 01:38:41;;;;;;;13.93;10.68;;;;;;;;;;5056407;28;20109;-74
2023/07/07 01:41:21;;;;;;;16.85;10.07;;;;;;;;;;5058641;28;20045;-73
2023/07/07 01:44:03;;;;;;;15.83;11.53;;;;;;;;;;5058378;28;20068;-73
2023/07/07 01:46:31;;;;;;;14.10;11.43;;;;;;;;;;5059420;28;20032;-73
2023/07/07 01:49:12;;;;;;;19.85;11.02;;;;;;;;;;5059602;28;20051;-73
2023/07/07 01:51:38;;;;;;;;;;;;;;;;;;5043063;28;20071;-74
2023/07/07 01:54:07;;;;;;;15.48;11.63;;;;;;;;;;5060805;28;19999;-73
2023/07/07 01:56:33;;;;;;;16.10;12.55;;;;;;;;;;5061140;28;20056;-74
2023/07/07 01:59:00;;;;;;;14.40;12.27;;;;;;;;;;5060500;28;20091;-73
2023/07/07 02:01:27;;;;;;;19.17;13.00;;;;;;;;;;5061866;28;20049;-74
2023/07/07 02:03:53;;;;;;;15.65;13.02;;;;;;;;;;5060853;28;20045;-73
2023/07/07 02:06:19;;;;;;;17.55;12.43;;;;;;;;;;5061947;28;20105;-74
2023/07/07 02:08:46;;;;;;;16.52;13.77;;;;;;;;;;5061156;28;20041;-74
2023/07/07 02:11:12;;;;;;;17.33;13.18;;;;;;;;;;5063179;28;20041;-74
2023/07/07 02:13:38;;;;;;;19.95;13.27;;;;;;;;;;5061641;28;20107;-74
2023/07/07 02:16:07;;;;;;;20.15;13.80;;;;;;;;;;5061704;28;20060;-73
2023/07/07 02:18:37;;;;;;;19.83;14.20;;;;;;;;;;5062682;28;20040;-74
2023/07/07 02:21:04;;;;;;;17.23;13.57;;;;;;;;;;5062516;28;20092;-73
2023/07/07 02:23:30;;;;;;;21.88;14.57;;;;;;;;;;5062038;28;20120;-74
2023/07/07 02:25:57;;;;;;;16.30;13.63;;;;;;;;;;5062207;28;20095;-73
2023/07/07 02:28:23;;;;;;;22.63;15.18;;;;;;;;;;5059941;28;20114;-74
2023/07/07 02:30:49;;;;;;;16.75;14.95;;;;;;;;;;5062482;28;20045;-74
2023/07/07 02:33:15;;;;;;;18.00;15.27;;;;;;;;;;5061185;28;20045;-75
2023/07/07 02:35:41;;;;;;;19.00;14.95;;;;;;;;;;5063905;28;20049;-74
2023/07/07 02:38:07;;;;;;;18.05;16.15;;;;;;;;;;5063448;28;20540;-74
2023/07/07 02:40:34;;;;;;;20.63;14.85;;;;;;;;;;5060523;28;20042;-73
2023/07/07 02:43:00;;;;;;;23.83;16.20;;;;;;;;;;5046882;28;20045;-74
2023/07/07 02:45:26;;;;;;;18.48;16.50;;;;;;;;;;5053174;28;20963;-74
2023/07/07 02:47:52;;;;;;;19.67;16.25;;;;;;;;;;5062469;28;20053;-74
2023/07/07 02:50:18;;;;;;;20.15;16.02;;;;;;;;;;5063710;28;20088;-74
2023/07/07 02:52:44;;;;;;;17.95;16.02;;;;;;;;;;5063618;28;20486;-74
2023/07/07 02:55:10;;;;;;;17.88;15.85;;;;;;;;;;5063056;28;20053;-74
2023/07/07 02:57:37;;;;;;;21.40;16.42;;;;;;;;;;5060411;28;20037;-74
2023/07/07 03:00:05;;;;;;;20.00;16.08;;;;;;;;;;5061083;28;20076;-75
2023/07/07 03:02:31;;;;;;;19.20;15.88;;;;;;;;;;5059833;28;20495;-74
2023/07/07 03:04:57;;;;;;;21.10;15.32;;;;;;;;;;5061972;28;20080;-74
2023/07/07 03:07:23;;;;;;;20.00;17.80;;;;;;;;;;5060733;28;20051;-74
2023/07/07 03:09:49;;;;;;;21.13;16.67;;;;;;;;;;5059963;28;20055;-73
2023/07/07 03:12:15;;;;;;;19.48;16.85;;;;;;;;;;5061161;28;20045;-74
2023/07/07 03:14:42;;;;;;;23.77;16.83;;;;;;;;;;5054776;28;20053;-74
2023/07/07 03:17:08;;;;;;;19.90;17.00;;;;;;;;;;5045316;28;20047;-74
2023/07/07 03:19:35;;;;;;;20.88;17.35;;;;;;;;;;5042875;28;20397;-74
2023/07/07 03:22:01;;;;;;;21.23;17.42;;;;;;;;;;5046070;28;20043;-74
2023/07/07 03:24:27;;;;;;;21.92;17.00;;;;;;;;;;5040702;28;20077;-74
2023/07/07 03:26:53;;;;;;;19.02;17.10;;;;;;;;;;5042362;28;20049;-75
2023/07/07 03:29:19;;;;;;;22.13;17.60;;;;;;;;;;5053407;28;20068;-74
2023/07/07 03:31:45;;;;;;;23.20;18.40;;;;;;;;;;5047204;28;20095;-74
2023/07/07 03:34:14;;;;;;;20.38;17.50;;;;;;;;;;5060944;28;20053;-73
2023/07/07 03:36:40;;;;;;;23.35;15.88;;;;;;;;;;5060606;28;20057;-75
2023/07/07 03:39:07;;;;;;;21.55;18.25;;;;;;;;;;5061611;28;20538;-74
2023/07/07 03:41:33;;;;;;;20.05;17.50;;;;;;;;;;5059995;28;20353;-74
2023/07/07 03:43:59;;;;;;;22.52;17.85;;;;;;;;;;5060323;28;20053;-73
2023/07/07 03:46:27;;;;;;;23.55;18.23;;;;;;;;;;5060827;28;20102;-75
2023/07/07 03:48:54;;;;;;;21.73;17.30;;;;;;;;;;5046669;28;20447;-74
2023/07/07 03:51:20;;;;;;;23.27;18.40;;;;;;;;;;5046227;28;20049;-74
2023/07/07 03:53:48;;;;;;;22.73;18.38;;;;;;;;;;5060946;28;20056;-73
2023/07/07 03:56:14;;;;;;;23.27;18.88;;;;;;;;;;5057364;28;20056;-74
2023/07/07 03:58:41;;;;;;;23.95;18.88;;;;;;;;;;5059505;28;20516;-75
2023/07/07 04:01:09;;;;;;;20.65;18.10;;;;;;;;;;5061436;28;20041;-74
2023/07/07 04:03:35;;;;;;;21.80;17.40;;;;;;;;;;5059954;28;20056;-74
2023/07/07 04:06:02;;;;;;;20.33;17.92;;;;;;;;;;5060394;28;20051;-74
2023/07/07 04:08:28;;;;;;;19.10;17.00;;;;;;;;;;5051234;28;20042;-74
2023/07/07 04:11:24;;;;;;;21.33;17.80;;;;;;;;;;5039232;28;20076;-75
2023/07/07 04:13:51;;;;;;;20.95;18.52;;;;;;;;;;5034769;28;20053;-73
2023/07/07 04:16:18;;;;;;;24.88;18.83;;;;;;;;;;5059276;28;20053;-74
2023/07/07 04:18:45;;;;;;;20.67;17.17;;;;;;;;;;5059759;28;20052;-74
2023/07/07 04:21:15;;;;;;;21.63;18.23;;;;;;;;;;5059061;28;20056;-75
2023/07/07 04:23:42;;;;;;;20.37;17.47;;;;;;;;;;5060016;28;20112;-74
2023/07/07 04:26:09;;;;;;;19.00;16.92;;;;;;;;;;5060973;28;20053;-74
2023/07/07 04:28:38;;;;;;;19.00;15.60;;;;;;;;;;5059617;28;20045;-73
2023/07/07 04:31:05;;;;;;;18.67;14.65;;;;;;;;;;5058433;28;20124;-74
2023/07/07 04:33:32;;;;;;;17.27;14.65;;;;;;;;;;5057527;28;20049;-74
2023/07/07 04:35:59;;;;;;;17.00;13.55;;;;;;;;;;5054816;28;20124;-74
2023/07/07 04:38:30;;;;;;;16.33;14.07;;;;;;;;;;5060213;28;20080;-74
2023/07/07 04:41:16;;;;;;;20.92;14.05;;;;;;;;;;5059431;28;20048;-74
2023/07/07 04:43:44;;;;;;;15.68;13.98;;;;;;;;;;5058604;28;20056;-75
2023/07/07 04:46:21;;;;;;;16.90;13.80;;;;;;;;;;5056874;28;20045;-74
2023/07/07 04:48:48;;;;;;;16.52;14.65;;;;;;;;;;5058567;28;20052;-74
2023/07/07 04:51:14;;;;;;;17.85;15.40;;;;;;;;;;5058445;28;20045;-74
2023/07/07 04:53:41;;;;;;;19.35;15.65;;;;;;;;;;5059133;28;20364;-74
2023/07/07 04:56:18;;;;;;;19.10;16.65;;;;;;;;;;5053873;28;20494;-74
2023/07/07 04:58:45;;;;;;;18.75;16.13;;;;;;;;;;5060932;28;20073;-74
2023/07/07 05:01:15;;;;;;;17.35;15.52;;;;;;;;;;5060424;28;20189;-74
2023/07/07 05:03:42;;;;;;;19.95;15.95;;;;;;;;;;5058974;28;20102;-74
2023/07/07 05:06:09;;;;;;;24.13;16.65;;;;;;;;;;5055494;28;20389;-74
2023/07/07 05:08:36;;;;;;;19.63;17.52;;;;;;;;;;5057856;28;20056;-74
2023/07/07 05:11:03;;;;;;;18.90;16.90;;;;;;;;;;5060541;28;20056;-74
2023/07/07 05:13:29;;;;;;;18.17;16.27;;;;;;;;;;5059640;28;20040;-74
2023/07/07 05:16:04;;;;;;;20.10;17.25;;;;;;;;;;5042208;28;20049;-74
2023/07/07 05:18:30;;;;;;;20.30;16.85;;;;;;;;;;5060576;28;20410;-73
2023/07/07 05:20:56;;;;;;;19.85;16.52;;;;;;;;;;5059483;28;20049;-74
2023/07/07 05:23:23;;;;;;;19.88;16.20;;;;;;;;;;5057536;28;20068;-74
2023/07/07 05:25:50;;;;;;;21.05;16.63;;;;;;;;;;5058520;28;20120;-74
2023/07/07 05:28:16;;;;;;;20.23;15.65;;;;;;;;;;5058732;28;20072;-74
2023/07/07 05:30:42;;;;;;;19.15;15.90;;;;;;;;;;5056751;28;20048;-74
2023/07/07 05:33:09;;;;;;;21.35;15.77;;;;;;;;;;5054904;28;20093;-74
2023/07/07 05:35:35;;;;;;;17.55;15.18;;;;;;;;;;5039529;28;20048;-75
2023/07/07 05:38:01;;;;;;;16.65;14.40;;;;;;;;;;5042409;28;20037;-74
2023/07/07 05:40:28;;;;;;;16.75;13.77;;;;;;;;;;5059981;28;20049;-74
2023/07/07 05:42:54;;;;;;;15.95;13.10;;;;;;;;;;5058895;28;20041;-74
2023/07/07 05:45:20;;;;;;;14.68;13.13;;;;;;;;;;5059286;28;20045;-73
2023/07/07 05:47:46;;;;;;;15.65;12.38;;;;;;;;;;5073904;28;20045;-73
2023/07/07 05:50:12;;;;;;;13.25;11.38;;;;;;;;;;5061649;28;20052;-75
2023/07/07 05:52:39;;;;;;;14.38;11.15;;;;;;;;;;5068965;28;20454;-75
2023/07/07 05:55:05;;;;;;;14.60;11.07;;;;;;;;;;5059877;28;20444;-74
2023/07/07 05:57:31;;;;;;;12.65;10.43;;;;;;;;;;5070364;28;20056;-74
2023/07/07 05:59:57;;;;;;;13.35;10.75;;;;;;;;;;5068944;28;20076;-75
2023/07/07 06:02:24;;;;;;;14.60;10.23;;;;;;;;;;5060784;28;20398;-75
2023/07/07 06:04:50;;;;;;;11.93;9.88;;;;;;;;;;5057477;28;20044;-75
2023/07/07 06:07:16;;;;;;;15.63;9.75;;;;;;;;;;5058614;28;20041;-75
2023/07/07 06:09:49;;;;;;;13.20;9.25;;;;;;;;;;5060259;28;20049;-76
2023/07/07 06:12:15;;;;;;;13.00;9.73;;;;;;;;;;5059045;28;20565;-75
2023/07/07 06:14:41;;;;;;;13.00;9.40;;;;;;;;;;5057046;28;20053;-76
2023/07/07 06:17:07;;;;;;;12.07;8.40;;;;;;;;;;5058584;28;20053;-75
2023/07/07 06:19:33;;;;;;;10.57;8.30;;;;;;;;;;5057871;28;20045;-75
2023/07/07 06:21:59;;;;;;;12.77;8.05;;;;;;;;;;5057255;28;20124;-75
2023/07/07 06:24:25;;;;;;;9.60;7.80;;;;;;;;;;5053991;28;20063;-75
2023/07/07 06:26:51;;;;;;;10.63;7.57;;;;;;;;;;5055420;28;20037;-75
2023/07/07 06:29:17;;;;;;;11.20;7.65;;;;;;;;;;5049638;28;20112;-75
2023/07/07 06:31:43;;;;;;;9.50;7.45;;;;;;;;;;5039047;28;20120;-75
2023/07/07 06:34:09;;;;;;;10.73;7.60;;;;;;;;;;5056332;28;20183;-76
2023/07/07 06:36:35;;;;;;;11.10;7.30;;;;;;;;;;5057874;28;20060;-76
2023/07/07 06:39:03;;;;;;;9.90;6.93;;;;;;;;;;5051565;28;20509;-75
2023/07/07 06:41:29;;;;;;;10.70;7.43;;;;;;;;;;5061255;28;20098;-75
2023/07/07 06:43:56;;;;;;;10.38;7.43;;;;;;;;;;5062313;28;20406;-75
2023/07/07 06:46:24;;;;;;;11.77;6.97;;;;;;;;;;5061348;28;20049;-75
2023/07/07 06:48:50;;;;;;;11.30;6.47;;;;;;;;;;5061824;28;20980;-76
2023/07/07 06:51:17;;;;;;;12.23;6.75;;;;;;;;;;5060043;28;20104;-75
2023/07/07 06:53:43;;;;;;;10.10;6.40;;;;;;;;;;5060488;28;20049;-76
2023/07/07 06:56:09;;;;;;;8.98;6.35;;;;;;;;;;5060704;28;20055;-75
2023/07/07 06:58:36;;;;;;;8.73;5.95;;;;;;;;;;5062233;28;20528;-75
2023/07/07 07:01:02;;;;;;;10.30;6.57;;;;;;;;;;5060723;28;20049;-76
2023/07/07 07:03:28;;;;;;;7.72;6.05;;;;;;;;;;5060822;28;20045;-75
2023/07/07 07:05:55;;;;;;;9.70;6.20;;;;;;;;;;5056481;28;20037;-75
2023/07/07 07:08:21;;;;;;;9.00;5.30;;;;;;;;;;5060749;28;20087;-74
2023/07/07 07:10:47;;;;;;;9.00;5.93;;;;;;;;;;5059928;28;20095;-75
2023/07/07 07:13:13;;;;;;;11.23;5.65;;;;;;;;;;5062637;28;20093;-76
2023/07/07 07:15:39;;;;;;;9.90;5.50;;;;;;;;;;5063754;28;20148;-75
2023/07/07 07:18:06;;;;;;;8.73;4.97;;;;;;;;;;5059043;28;20049;-75
2023/07/07 07:20:32;;;;;;;10.43;5.03;;;;;;;;;;5064295;28;20083;-75
2023/07/07 07:22:58;;;;;;;10.45;5.70;;;;;;;;;;5067754;28;20049;-76
2023/07/07 07:25:24;;;;;;;7.53;4.80;;;;;;;;;;5063821;28;20048;-76
2023/07/07 07:27:50;;;;;;;8.75;5.05;;;;;;;;;;5062746;28;20207;-75
2023/07/07 07:30:16;;;;;;;8.70;4.68;;;;;;;;;;5065336;28;20068;-75
2023/07/07 07:32:43;;;;;;;9.27;4.45;;;;;;;;;;5064304;28;20118;-76
2023/07/07 07:35:10;;;;;;;8.13;3.90;;;;;;;;;;5047231;28;20064;-74
2023/07/07 07:37:36;;;;;;;8.68;4.30;;;;;;;;;;5061485;28;20045;-75
2023/07/07 07:40:03;;;;;;;7.10;4.07;;;;;;;;;;5063013;28;20123;-76
2023/07/07 07:42:29;;;;;;;8.48;4.32;;;;;;;;;;5062598;28;20099;-75
2023/07/07 07:44:55;;;;;;;8.48;3.80;;;;;;;;;;5063075;28;20041;-75
2023/07/07 07:47:21;;;;;;;8.02;3.70;;;;;;;;;;5060336;28;20063;-76
2023/07/07 07:49:49;;;;;;;8.35;3.80;;;;;;;;;;5066255;28;20112;-76
2023/07/07 07:52:15;;;;;;;8.73;3.10;;;;;;;;;;5066449;28;20494;-75
2023/07/07 07:54:41;;;;;;;6.97;3.40;;;;;;;;;;5059534;28;20506;-76
2023/07/07 07:57:08;;;;;;;7.95;3.35;;;;;;;;;;5064354;28;20051;-75
2023/07/07 07:59:34;;;;;;;8.80;2.90;;;;;;;;;;5062113;28;20076;-75
2023/07/07 08:02:01;;;;;;;7.03;3.17;;;;;;;;;;5066685;28;20076;-75
2023/07/07 08:04:27;;;;;;;7.30;3.05;;;;;;;;;;5064821;28;20048;-75
2023/07/07 08:06:54;;;;;;;8.13;3.08;;;;;;;;;;5064762;28;20127;-75
2023/07/07 08:09:21;;;;;;;7.20;3.10;;;;;;;;;;5063653;28;20045;-76
2023/07/07 08:11:47;;;;;;;7.10;2.95;;;;;;;;;;5063521;28;20060;-74
2023/07/07 08:14:16;;;;;;;6.70;3.00;;;;;;;;;;5066341;28;20052;-77
2023/07/07 08:16:42;;;;;;;6.72;2.50;;;;;;;;;;5064445;28;20111;-75
2023/07/07 08:19:08;;;;;;;8.85;2.90;;;;;;;;;;5054507;28;20084;-75
2023/07/07 08:21:35;;;;;;;7.75;3.03;;;;;;;;;;5044292;28;20045;-75
2023/07/07 08:24:01;;;;;;;6.82;2.60;;;;;;;;;;5052799;28;20483;-76
2023/07/07 08:26:27;;;;;;;8.23;2.50;;;;;;;;;;5059265;28;20475;-75
2023/07/07 08:28:53;;;;;;;10.20;2.50;;;;;;;;;;5060838;28;20060;-75
2023/07/07 08:31:19;;;;;;;6.68;2.45;;;;;;;;;;5059580;28;20037;-75
2023/07/07 08:33:48;;;;;;;7.68;2.40;;;;;;;;;;5060829;28;20522;-76
2023/07/07 08:36:15;;;;;;;5.97;2.30;;;;;;;;;;5062426;28;20067;-75
2023/07/07 08:38:41;;;;;;;6.00;2.15;;;;;;;;;;5063755;28;20070;-74
2023/07/07 08:41:07;;;;;;;5.40;2.13;;;;;;;;;;5060846;28;20045;-76
2023/07/07 08:43:33;;;;;;;6.57;2.22;;;;;;;;;;5057890;28;20045;-74
2023/07/07 08:46:10;;;;;;;5.85;2.47;;;;;;;;;;5055339;28;20045;-74
2023/07/07 08:48:56;;;;;;;5.80;2.38;;;;;;;;;;5053432;28;20127;-75
2023/07/07 08:51:31;;;;;;;6.97;2.35;;;;;;;;;;5058925;28;20049;-75
2023/07/07 08:54:08;;;;;;;6.28;2.40;;;;;;;;;;5060315;28;20056;-75
2023/07/07 08:56:39;;;;;;;6.85;2.40;;;;;;;;;;5053951;28;20087;-75
2023/07/07 08:59:05;;;;;;;;;;;;;;;;;;5054241;28;20138;-75
2023/07/07 09:01:34;;;;;;;6.93;2.60;;;;;;;;;;5058436;28;20398;-75
2023/07/07 09:04:02;;;;;;;9.70;2.40;;;;;;;;;;5060690;28;20131;-75
2023/07/07 09:06:28;;;;;;;5.78;2.28;;;;;;;;;;5059820;28;20049;-74
2023/07/07 09:08:58;;;;;;;10.27;2.85;;;;;;;;;;5056676;28;20071;-75
2023/07/07 09:11:24;;;;;;;8.57;2.65;;;;;;;;;;5058994;28;20045;-75
2023/07/07 09:13:52;;;;;;;6.00;2.40;;;;;;;;;;5059528;28;20044;-74
2023/07/07 09:16:22;;;;;;;5.32;2.13;;;;;;;;;;5059713;28;20041;-74
2023/07/07 09:18:48;;;;;;;8.70;2.63;;;;;;;;;;5059806;28;20096;-74
2023/07/07 09:21:23;;;;;;;7.22;2.03;;;;;;;;;;5060767;28;20057;-74
2023/07/07 09:23:51;;;;;;;6.72;2.15;;;;;;;;;;5059646;28;20052;-74
2023/07/07 09:26:36;;;;;;;5.07;2.20;;;;;;;;;;5050589;28;20044;-75
2023/07/07 09:29:06;;;;;;;7.47;2.00;;;;;;;;;;5045154;28;20050;-74
2023/07/07 09:31:37;;;;;;;7.72;2.50;;;;;;;;;;5061283;28;20052;-75
2023/07/07 09:34:03;;;;;;;6.05;2.28;;;;;;;;;;5066482;28;20079;-74
2023/07/07 09:36:32;;;;;;;5.35;2.10;;;;;;;;;;5066220;28;20043;-74
2023/07/07 09:39:17;;;;;;;5.30;2.38;;;;;;;;;;5064258;28;20049;-75
2023/07/07 09:41:58;;;;;;;8.45;2.55;;;;;;;;;;5064098;28;20041;-74
2023/07/07 09:44:24;;;;;;;;;;;;;;;;;;5065403;28;20036;-74
2023/07/07 09:46:56;;;;;;;5.50;2.03;;;;;;;;;;5064575;28;19968;-74
2023/07/07 09:49:31;;;;;;;7.55;2.22;;;;;;;;;;5058230;28;20052;-75
2023/07/07 09:52:12;;;;;;;4.85;2.10;;;;;;;;;;5065067;28;20129;-74
2023/07/07 09:54:38;;;;;;;6.97;2.17;;;;;;;;;;5064746;28;20056;-75
2023/07/07 09:57:07;;;;;;;6.05;2.60;;;;;;;;;;5064914;28;20084;-74
2023/07/07 09:59:41;;;;;;;8.40;2.33;;;;;;;;;;5044255;28;20045;-75
2023/07/07 10:02:16;;;;;;;9.30;2.63;;;;;;;;;;5043956;28;20100;-74
2023/07/07 10:04:45;;;;;;;5.22;2.30;;;;;;;;;;5049069;28;20619;-74
2023/07/07 10:07:12;;;;;;;7.40;2.33;;;;;;;;;;5060034;28;20077;-75
2023/07/07 10:09:38;;;;;;;8.00;2.70;;;;;;;;;;5058283;28;20077;-74
2023/07/07 10:12:04;;;;;;;6.10;2.50;;;;;;;;;;5064524;28;20049;-75
2023/07/07 10:14:31;;;;;;;5.63;2.17;;;;;;;;;;5067883;28;20040;-74
2023/07/07 10:17:10;;;;;;;8.40;2.83;;;;;;;;;;5068266;28;20072;-74
2023/07/07 10:19:50;;;;;;;5.22;2.22;;;;;;;;;;5047717;28;20155;-75
2023/07/07 10:22:16;;;;;;;6.45;2.50;;;;;;;;;;5055705;28;20063;-74
2023/07/07 10:24:43;;;;;;;6.90;2.10;;;;;;;;;;5059920;28;20049;-74
2023/07/07 10:27:13;;;;;;;6.40;2.38;;;;;;;;;;5066651;28;20069;-74
2023/07/07 10:29:41;;;;;;;8.00;2.70;;;;;;;;;;5066413;28;20154;-74
2023/07/07 10:32:11;;;;;;;6.88;2.30;;;;;;;;;;5062736;28;20056;-74
2023/07/07 10:34:37;;;;;;;;;;;;;;;;;;5060218;28;20081;-74
2023/07/07 10:37:15;;;;;;;5.22;2.40;;;;;;;;;;5061707;28;19921;-74
2023/07/07 10:39:41;;;;;;;5.45;2.40;;;;;;;;;;5059184;28;20100;-74
2023/07/07 10:42:09;;;;;;;5.97;2.75;;;;;;;;;;5061438;28;20127;-74
2023/07/07 10:44:35;;;;;;;6.63;2.50;;;;;;;;;;5061374;28;20049;-75
2023/07/07 10:47:03;;;;;;;8.00;2.38;;;;;;;;;;5060756;28;20056;-74
2023/07/07 10:49:29;;;;;;;6.40;2.38;;;;;;;;;;5060020;28;20391;-74
2023/07/07 10:52:09;;;;;;;6.82;2.40;;;;;;;;;;5058253;28;20128;-74
2023/07/07 10:54:54;;;;;;;7.88;2.60;;;;;;;;;;5057620;28;20076;-75
2023/07/07 10:57:52;;;;;;;6.30;2.33;;;;;;;;;;5056255;28;20122;-73
2023/07/07 11:00:30;;;;;;;6.45;2.38;;;;;;;;;;5016268;28;20531;-73
2023/07/07 11:02:56;;;;;;;6.05;2.35;;;;;;;;;;5015849;28;20400;-72
2023/07/07 11:05:37;;;;;;;5.65;2.30;;;;;;;;;;5009406;28;20045;-73
2023/07/07 11:08:16;;;;;;;5.03;2.35;;;;;;;;;;5016765;28;20038;-73
2023/07/07 11:10:42;;;;;;;6.03;2.20;;;;;;;;;;5015149;28;20053;-74
2023/07/07 11:13:19;;;;;;;6.03;2.45;;;;;;;;;;5013696;28;20048;-75
2023/07/07 11:16:03;;;;;;;6.85;2.20;;;;;;;;;;5013846;28;20065;-73
2023/07/07 11:18:29;;;;;;;6.00;2.42;;;;;;;;;;5014166;28;20041;-73
2023/07/07 11:21:08;;;;;;;6.53;2.58;;;;;;;;;;5014416;28;20142;-72
2023/07/07 11:23:53;;;;;;;8.48;2.83;;;;;;;;;;4998301;28;20057;-73
2023/07/07 11:26:37;;;;;;;5.88;2.60;;;;;;;;;;5011097;28;20101;-72
2023/07/07 11:29:10;;;;;;;5.35;2.40;;;;;;;;;;5018532;28;20050;-73
2023/07/07 11:31:47;;;;;;;9.23;2.50;;;;;;;;;;4992934;28;20094;-73
2023/07/07 11:34:16;;;;;;;7.47;2.60;;;;;;;;;;5017474;28;20433;-73
2023/07/07 11:37:06;;;;;;;7.90;2.60;;;;;;;;;;5050093;28;20117;-73
2023/07/07 11:39:44;;;;;;;6.90;2.38;;;;;;;;;;5057774;28;20045;-72
2023/07/07 11:42:16;;;;;;;6.53;2.80;;;;;;;;;;5051272;28;20435;-73
2023/07/07 11:44:45;;;;;;;6.55;2.80;;;;;;;;;;5045287;28;20056;-73
2023/07/07 11:47:17;;;;;;;6.25;2.40;;;;;;;;;;5047162;28;20045;-73
2023/07/07 11:50:04;;;;;;;6.18;2.63;;;;;;;;;;5045680;28;20041;-73
2023/07/07 11:52:56;;;;;;;8.40;3.05;;;;;;;;;;5057287;28;20049;-73
2023/07/07 11:55:40;;;;;;;6.68;2.47;;;;;;;;;;5053796;28;20045;-73
2023/07/07 11:58:06;;;;;;;5.80;2.35;;;;;;;;;;5055173;28;20045;-73
2023/07/07 12:00:32;;;;;;;5.68;2.30;;;;;;;;;;5055520;28;20041;-73
2023/07/07 12:03:18;;;;;;;4.85;2.10;;;;;;;;;;5055307;28;20048;-73
2023/07/07 12:05:46;;;;;;;6.50;2.70;;;;;;;;;;5053646;28;20442;-74
2023/07/07 12:08:15;;;;;;;5.90;2.60;;;;;;;;;;5051318;28;20372;-72
2023/07/07 12:10:48;;;;;;;5.25;2.42;;;;;;;;;;5052698;28;20087;-73
2023/07/07 12:13:24;;;;;;;5.05;2.35;;;;;;;;;;5054329;28;20079;-73
2023/07/07 12:15:54;;;;;;;6.22;2.30;;;;;;;;;;5054112;28;20102;-73
2023/07/07 12:18:26;;;;;;;4.90;2.42;;;;;;;;;;5051289;28;20407;-72
2023/07/07 12:20:55;;;;;;;4.95;2.35;;;;;;;;;;5052269;28;20402;-73
2023/07/07 12:23:30;;;;;;;6.15;2.15;;;;;;;;;;5054944;28;20072;-73
2023/07/07 12:26:05;;;;;;;6.75;2.80;;;;;;;;;;5054065;28;20499;-74
2023/07/07 12:28:31;;;;;;;5.22;2.30;;;;;;;;;;5036851;28;20119;-73
2023/07/07 12:30:57;;;;;;;5.47;2.22;;;;;;;;;;5054124;28;20071;-73
2023/07/07 12:33:24;;;;;;;6.68;2.58;;;;;;;;;;5055126;28;20159;-72
2023/07/07 12:35:51;;;;;;;6.78;2.40;;;;;;;;;;5054266;28;20053;-73
2023/07/07 12:38:20;;;;;;;5.43;2.33;;;;;;;;;;5054142;28;20079;-73
2023/07/07 12:40:47;;;;;;;6.03;2.40;;;;;;;;;;5055054;28;20037;-73
2023/07/07 12:43:28;;;;;;;6.38;2.65;;;;;;;;;;5052600;28;20045;-73
2023/07/07 12:45:55;;;;;;;5.50;2.38;;;;;;;;;;5053047;28;20044;-73
2023/07/07 12:48:28;;;;;;;7.47;3.08;;;;;;;;;;5052434;28;20101;-73
2023/07/07 12:50:59;;;;;;;5.68;2.30;;;;;;;;;;5052557;28;20128;-73
2023/07/07 12:53:26;;;;;;;7.40;2.50;;;;;;;;;;5050093;28;20052;-73
2023/07/07 12:55:58;;;;;;;5.70;2.60;;;;;;;;;;5053102;28;20495;-73
2023/07/07 12:58:31;;;;;;;5.88;2.85;;;;;;;;;;5053652;28;20130;-74
2023/07/07 13:01:06;;;;;;;6.35;2.15;;;;;;;;;;5051405;28;20040;-73
2023/07/07 13:03:32;;;;;;;6.53;2.60;;;;;;;;;;5051297;28;20132;-73
2023/07/07 13:06:00;;;;;;;5.63;2.45;;;;;;;;;;5053327;28;20495;-73
2023/07/07 13:08:35;;;;;;;6.35;2.63;;;;;;;;;;5033792;28;20057;-72
2023/07/07 13:11:24;;;;;;;5.80;2.65;;;;;;;;;;5032638;28;20087;-72
2023/07/07 13:13:50;;;;;;;4.82;2.40;;;;;;;;;;5041642;28;21003;-72
2023/07/07 13:16:18;;;;;;;6.55;2.45;;;;;;;;;;5053961;28;20033;-72
2023/07/07 13:18:44;;;;;;;10.07;2.40;;;;;;;;;;5054650;28;20063;-73
2023/07/07 13:21:12;;;;;;;5.55;2.65;;;;;;;;;;5052137;28;20064;-73
2023/07/07 13:23:41;;;;;;;6.18;2.58;;;;;;;;;;5054101;28;20049;-73
2023/07/07 13:26:22;;;;;;;5.50;2.45;;;;;;;;;;5055420;28;20044;-73
2023/07/07 13:28:48;;;;;;;7.78;2.75;;;;;;;;;;5056352;28;20055;-73
2023/07/07 13:31:16;;;;;;;7.13;2.55;;;;;;;;;;5055025;28;20467;-73
2023/07/07 13:33:42;;;;;;;5.63;2.67;;;;;;;;;;5055016;28;20045;-74
2023/07/07 13:36:09;;;;;;;7.10;2.60;;;;;;;;;;5053901;28;20063;-73
2023/07/07 13:38:38;;;;;;;5.85;2.80;;;;;;;;;;5053621;28;20052;-73
2023/07/07 13:41:05;;;;;;;7.07;2.58;;;;;;;;;;5052398;28;20088;-74
2023/07/07 13:43:38;;;;;;;6.03;2.47;;;;;;;;;;5051168;28;20136;-73
2023/07/07 13:46:10;;;;;;;6.85;2.63;;;;;;;;;;5053502;28;20109;-74
2023/07/07 13:48:40;;;;;;;6.80;2.85;;;;;;;;;;5063537;28;20132;-74
2023/07/07 13:51:12;;;;;;;5.70;2.33;;;;;;;;;;5061565;28;20079;-74
2023/07/07 13:53:39;;;;;;;8.05;2.90;;;;;;;;;;5061483;28;20078;-75
2023/07/07 13:56:06;;;;;;;7.22;2.65;;;;;;;;;;5057500;28;20063;-74
2023/07/07 13:58:33;;;;;;;6.90;2.78;;;;;;;;;;5058642;28;20101;-74
2023/07/07 14:01:00;;;;;;;5.18;2.22;;;;;;;;;;5059343;28;20072;-74
2023/07/07 14:03:28;;;;;;;5.22;2.30;;;;;;;;;;5061476;28;20044;-75
2023/07/07 14:05:55;;;;;;;7.85;2.55;;;;;;;;;;5048495;28;20046;-73
2023/07/07 14:08:23;;;;;;;5.63;2.30;;;;;;;;;;5069443;28;20166;-72
2023/07/07 14:10:51;;;;;;;7.95;2.50;;;;;;;;;;5061850;28;20041;-74
2023/07/07 14:13:18;;;;;;;5.65;2.40;;;;;;;;;;5060288;28;20076;-74
2023/07/07 14:15:51;;;;;;;5.68;2.30;;;;;;;;;;5060685;28;20041;-74
2023/07/07 14:18:18;;;;;;;6.32;2.30;;;;;;;;;;5056258;28;20045;-74
2023/07/07 14:20:47;;;;;;;6.43;2.65;;;;;;;;;;5057025;28;20053;-74
2023/07/07 14:23:15;;;;;;;4.95;2.17;;;;;;;;;;5044629;28;20512;-74
2023/07/07 14:25:44;;;;;;;4.65;2.20;;;;;;;;;;5047958;28;20049;-74
2023/07/07 14:28:18;;;;;;;6.47;2.42;;;;;;;;;;5061298;28;20037;-74
2023/07/07 14:31:01;;;;;;;5.70;2.60;;;;;;;;;;5060572;28;20049;-75
2023/07/07 14:33:32;;;;;;;5.90;2.35;;;;;;;;;;5055923;28;20079;-75
2023/07/07 14:35:59;;;;;;;4.68;2.15;;;;;;;;;;5047949;28;20045;-75
2023/07/07 14:38:25;;;;;;;5.43;2.30;;;;;;;;;;5053342;28;20568;-75
2023/07/07 14:40:55;;;;;;;7.80;2.47;;;;;;;;;;5056358;28;20045;-74
2023/07/07 14:43:22;;;;;;;7.18;2.50;;;;;;;;;;5059850;28;20056;-73
2023/07/07 14:45:49;;;;;;;6.85;2.60;;;;;;;;;;5060425;28;20049;-74